createdAt,value
2023-02-16T00:00:32.764Z,25.37
2023-02-16T00:01:32.722Z,25.37
2023-02-16T00:54:52.113Z,25.39
2023-02-16T00:55:53.009Z,25.39
2023-02-16T00:56:52.984Z,25.42
2023-02-16T00:57:52.926Z,25.41
2023-02-16T00:58:52.908Z,25.41
2023-02-16T00:59:52.863Z,25.39
2023-02-16T01:00:52.814Z,25.41
2023-02-16T01:01:52.948Z,25.38
2023-02-16T01:02:52.739Z,25.42
2023-02-16T01:03:52.706Z,25.41
2023-02-16T01:04:52.695Z,25.39
2023-02-16T01:05:52.634Z,25.41
2023-02-16T01:06:52.635Z,25.37
2023-02-16T01:07:52.564Z,25.38
2023-02-16T01:08:52.529Z,25.39
2023-02-16T01:09:52.502Z,25.38
2023-02-16T01:10:52.494Z,25.38
2023-02-16T01:11:52.481Z,25.39
2023-02-16T01:12:52.381Z,25.38
2023-02-16T01:13:52.345Z,25.39
2023-02-16T01:14:52.318Z,25.35
2023-02-16T01:15:52.319Z,25.38
2023-02-16T01:16:52.273Z,25.37
2023-02-16T01:17:52.201Z,25.37
2023-02-16T01:18:52.185Z,25.37
2023-02-16T01:19:52.126Z,25.37
2023-02-16T01:20:52.104Z,25.39
2023-02-16T01:21:52.062Z,25.37
2023-02-16T01:22:52.032Z,25.37
2023-02-16T01:23:51.989Z,25.35
2023-02-16T01:24:51.991Z,25.35
2023-02-16T01:25:51.921Z,25.37
2023-02-16T01:26:51.901Z,25.35
2023-02-16T01:27:51.835Z,25.35
2023-02-16T01:28:51.801Z,25.32
2023-02-16T01:29:51.792Z,25.37
2023-02-16T01:30:51.947Z,25.35
2023-02-16T01:31:51.774Z,25.34
2023-02-16T01:32:51.838Z,25.34
2023-02-16T01:33:51.628Z,25.35
2023-02-16T01:34:51.577Z,25.37
2023-02-16T01:35:51.549Z,25.35
2023-02-16T01:36:51.533Z,25.37
2023-02-16T01:37:51.479Z,25.38
2023-02-16T01:38:51.434Z,25.35
2023-02-16T01:39:51.393Z,25.35
2023-02-16T01:40:51.352Z,25.35
2023-02-16T01:41:51.353Z,25.38
2023-02-16T01:42:51.350Z,25.35
2023-02-16T01:43:51.260Z,25.38
2023-02-16T01:44:51.251Z,25.35
2023-02-16T01:45:51.195Z,25.34
2023-02-16T01:46:51.273Z,25.35
2023-02-16T01:47:51.192Z,25.38
2023-02-16T01:48:51.074Z,25.37
2023-02-16T01:49:51.048Z,25.35
2023-02-16T01:50:51.019Z,25.38
2023-02-16T01:51:50.999Z,25.37
2023-02-16T01:52:50.948Z,25.35
2023-02-16T01:53:50.914Z,25.35
2023-02-16T01:54:50.877Z,25.35
2023-02-16T01:55:50.846Z,25.37
2023-02-16T01:56:50.848Z,25.35
2023-02-16T01:57:50.777Z,25.35
2023-02-16T01:58:50.769Z,25.35
2023-02-16T01:59:50.715Z,25.34
2023-02-16T02:00:50.690Z,25.34
2023-02-16T02:01:50.691Z,25.34
2023-02-16T02:02:50.697Z,25.37
2023-02-16T02:03:50.548Z,25.37
2023-02-16T02:04:50.504Z,25.32
2023-02-16T02:05:50.469Z,25.35
2023-02-16T02:06:50.435Z,25.37
2023-02-16T02:07:50.399Z,25.34
2023-02-16T02:08:50.380Z,25.37
2023-02-16T02:09:50.325Z,25.32
2023-02-16T02:10:50.278Z,25.32
2023-02-16T02:11:50.243Z,25.37
2023-02-16T02:12:50.238Z,25.37
2023-02-16T02:13:50.165Z,25.34
2023-02-16T02:14:50.161Z,25.35
2023-02-16T02:15:50.102Z,25.37
2023-02-16T02:16:50.045Z,25.37
2023-02-16T02:17:49.994Z,25.35
2023-02-16T02:18:49.961Z,25.35
2023-02-16T02:19:49.927Z,25.35
2023-02-16T02:20:49.881Z,25.32
2023-02-16T02:21:49.838Z,25.35
2023-02-16T02:22:49.790Z,25.34
2023-02-16T02:23:49.754Z,25.35
2023-02-16T02:24:49.700Z,25.34
2023-02-16T02:25:49.658Z,25.35
2023-02-16T02:26:49.621Z,25.37
2023-02-16T02:27:49.586Z,25.34
2023-02-16T02:28:49.535Z,25.35
2023-02-16T02:29:49.499Z,25.32
2023-02-16T02:30:49.511Z,25.34
2023-02-16T02:31:49.555Z,25.35
2023-02-16T02:32:49.366Z,25.34
2023-02-16T02:33:49.317Z,25.34
2023-02-16T02:34:49.279Z,25.35
2023-02-16T02:35:49.237Z,25.32
2023-02-16T02:36:49.280Z,25.35
2023-02-16T02:37:49.155Z,25.35
2023-02-16T02:38:49.211Z,25.37
2023-02-16T02:39:49.064Z,25.35
2023-02-16T02:40:49.017Z,25.35
2023-02-16T02:41:48.971Z,25.34
2023-02-16T02:42:48.936Z,25.34
2023-02-16T02:43:48.894Z,25.34
2023-02-16T02:44:48.855Z,25.32
2023-02-16T02:45:48.803Z,25.34
2023-02-16T02:46:48.884Z,25.35
2023-02-16T02:47:48.722Z,25.34
2023-02-16T02:48:48.698Z,25.32
2023-02-16T02:49:48.644Z,25.32
2023-02-16T02:50:48.604Z,25.35
2023-02-16T02:51:48.581Z,25.31
2023-02-16T02:52:48.525Z,25.34
2023-02-16T02:53:48.489Z,25.32
2023-02-16T02:54:48.441Z,25.31
2023-02-16T02:55:48.405Z,25.32
2023-02-16T02:56:48.370Z,25.32
2023-02-16T02:57:48.331Z,25.35
2023-02-16T02:58:48.283Z,25.32
2023-02-16T02:59:48.243Z,25.35
2023-02-16T03:00:48.218Z,25.34
2023-02-16T03:01:48.207Z,25.32
2023-02-16T03:02:48.165Z,25.32
2023-02-16T03:03:48.097Z,25.34
2023-02-16T03:04:48.094Z,25.34
2023-02-16T03:05:48.032Z,25.34
2023-02-16T03:06:48.010Z,25.34
2023-02-16T03:07:48.013Z,25.35
2023-02-16T03:08:47.914Z,25.34
2023-02-16T03:09:47.867Z,25.32
2023-02-16T03:10:47.832Z,25.34
2023-02-16T03:11:48.458Z,25.34
2023-02-16T03:12:47.758Z,25.37
2023-02-16T03:13:47.729Z,25.37
2023-02-16T03:14:47.670Z,25.32
2023-02-16T03:15:47.634Z,25.37
2023-02-16T03:16:47.691Z,25.34
2023-02-16T03:17:47.563Z,25.34
2023-02-16T03:18:47.548Z,25.34
2023-02-16T03:19:47.476Z,25.31
2023-02-16T03:20:47.439Z,25.32
2023-02-16T03:21:47.400Z,25.34
2023-02-16T03:22:47.373Z,25.34
2023-02-16T03:23:47.326Z,25.34
2023-02-16T03:24:47.297Z,25.32
2023-02-16T03:25:47.244Z,25.35
2023-02-16T03:26:47.205Z,25.34
2023-02-16T03:27:47.168Z,25.34
2023-02-16T03:28:47.140Z,25.34
2023-02-16T03:29:47.096Z,25.32
2023-02-16T03:30:47.204Z,25.32
2023-02-16T03:31:47.089Z,25.34
2023-02-16T03:32:46.960Z,25.34
2023-02-16T03:33:46.944Z,25.35
2023-02-16T03:34:46.898Z,25.32
2023-02-16T03:35:46.832Z,25.31
2023-02-16T03:36:46.827Z,25.31
2023-02-16T03:37:46.747Z,25.34
2023-02-16T03:38:46.705Z,25.31
2023-02-16T03:39:46.680Z,25.34
2023-02-16T03:40:46.624Z,25.32
2023-02-16T03:41:46.602Z,25.31
2023-02-16T03:42:46.538Z,25.32
2023-02-16T03:43:46.501Z,25.31
2023-02-16T03:44:46.477Z,25.31
2023-02-16T03:45:46.449Z,25.34
2023-02-16T03:46:46.416Z,25.32
2023-02-16T03:47:46.321Z,25.32
2023-02-16T03:48:46.283Z,25.32
2023-02-16T03:49:46.233Z,25.31
2023-02-16T03:50:46.219Z,25.34
2023-02-16T03:51:46.194Z,25.34
2023-02-16T03:52:46.118Z,25.32
2023-02-16T03:53:46.069Z,25.32
2023-02-16T03:54:46.025Z,25.30
2023-02-16T03:55:45.987Z,25.28
2023-02-16T03:56:45.971Z,25.32
2023-02-16T03:57:45.912Z,25.30
2023-02-16T03:58:45.843Z,25.31
2023-02-16T03:59:45.808Z,25.31
2023-02-16T04:00:45.994Z,25.34
2023-02-16T04:01:45.755Z,25.34
2023-02-16T04:02:45.656Z,25.32
2023-02-16T04:03:45.717Z,25.32
2023-02-16T04:04:45.570Z,25.31
2023-02-16T04:05:45.521Z,25.32
2023-02-16T04:06:45.496Z,25.31
2023-02-16T04:07:45.432Z,25.32
2023-02-16T04:08:45.405Z,25.32
2023-02-16T04:09:45.368Z,25.31
2023-02-16T04:10:45.296Z,25.32
2023-02-16T04:11:45.255Z,25.34
2023-02-16T04:12:45.218Z,25.31
2023-02-16T04:13:45.207Z,25.31
2023-02-16T04:14:45.166Z,25.34
2023-02-16T04:15:45.099Z,25.28
2023-02-16T04:16:45.336Z,25.32
2023-02-16T04:17:45.001Z,25.32
2023-02-16T04:18:44.961Z,25.31
2023-02-16T04:19:44.924Z,25.30
2023-02-16T04:20:44.883Z,25.32
2023-02-16T04:21:44.868Z,25.31
2023-02-16T04:22:44.839Z,25.31
2023-02-16T04:23:44.760Z,25.32
2023-02-16T04:24:44.725Z,25.35
2023-02-16T04:25:44.679Z,25.35
2023-02-16T04:26:44.637Z,25.31
2023-02-16T04:27:44.605Z,25.32
2023-02-16T04:28:44.549Z,25.32
2023-02-16T04:29:44.545Z,25.31
2023-02-16T04:30:44.550Z,25.32
2023-02-16T04:31:44.570Z,25.31
2023-02-16T04:32:44.381Z,25.32
2023-02-16T04:33:44.347Z,25.31
2023-02-16T04:34:44.306Z,25.31
2023-02-16T04:35:44.273Z,25.31
2023-02-16T04:36:44.905Z,25.31
2023-02-16T04:37:44.188Z,25.31
2023-02-16T04:38:44.196Z,25.32
2023-02-16T04:39:44.115Z,25.31
2023-02-16T04:40:44.083Z,25.32
2023-02-16T04:41:44.048Z,25.34
2023-02-16T04:42:44.023Z,25.30
2023-02-16T04:43:43.981Z,25.34
2023-02-16T04:44:43.951Z,25.34
2023-02-16T04:45:43.952Z,25.31
2023-02-16T04:46:43.877Z,25.31
2023-02-16T04:47:43.840Z,25.32
2023-02-16T04:48:43.810Z,25.35
2023-02-16T04:49:43.772Z,25.31
2023-02-16T04:50:43.742Z,25.30
2023-02-16T04:51:43.724Z,25.32
2023-02-16T04:52:43.716Z,25.31
2023-02-16T04:53:43.680Z,25.30
2023-02-16T04:54:43.673Z,25.34
2023-02-16T04:55:43.568Z,25.31
2023-02-16T04:56:43.530Z,25.32
2023-02-16T04:57:43.506Z,25.31
2023-02-16T04:58:43.486Z,25.30
2023-02-16T04:59:43.436Z,25.32
2023-02-16T05:00:43.387Z,25.30
2023-02-16T05:01:43.490Z,25.32
2023-02-16T05:02:43.313Z,25.31
2023-02-16T05:03:43.288Z,25.32
2023-02-16T05:04:43.286Z,25.32
2023-02-16T05:05:43.197Z,25.30
2023-02-16T05:06:43.162Z,25.31
2023-02-16T05:07:43.112Z,25.31
2023-02-16T05:08:43.086Z,25.31
2023-02-16T05:09:43.049Z,25.31
2023-02-16T05:10:43.057Z,25.34
2023-02-16T05:11:42.973Z,25.31
2023-02-16T05:12:42.928Z,25.30
2023-02-16T05:13:42.917Z,25.31
2023-02-16T05:14:42.926Z,25.30
2023-02-16T05:15:42.899Z,25.30
2023-02-16T05:16:42.766Z,25.31
2023-02-16T05:17:42.724Z,25.32
2023-02-16T05:18:42.682Z,25.30
2023-02-16T05:19:42.652Z,25.31
2023-02-16T05:20:42.605Z,25.31
2023-02-16T05:21:42.560Z,25.28
2023-02-16T05:22:42.528Z,25.32
2023-02-16T05:23:42.515Z,25.31
2023-02-16T05:24:42.460Z,25.31
2023-02-16T05:25:42.412Z,25.31
2023-02-16T05:26:42.401Z,25.32
2023-02-16T05:27:42.398Z,25.31
2023-02-16T05:28:42.299Z,25.30
2023-02-16T05:29:42.264Z,25.30
2023-02-16T05:30:42.260Z,25.30
2023-02-16T05:31:42.333Z,25.31
2023-02-16T05:32:42.167Z,25.31
2023-02-16T05:33:42.128Z,25.31
2023-02-16T05:34:42.092Z,25.30
2023-02-16T05:35:42.056Z,25.30
2023-02-16T05:36:42.032Z,25.30
2023-02-16T05:37:42.814Z,25.28
2023-02-16T05:38:41.939Z,25.32
2023-02-16T05:39:41.899Z,25.31
2023-02-16T05:40:41.864Z,25.31
2023-02-16T05:41:41.831Z,25.31
2023-02-16T05:42:41.936Z,25.28
2023-02-16T05:43:41.744Z,25.31
2023-02-16T05:44:41.712Z,25.31
2023-02-16T05:45:41.669Z,25.31
2023-02-16T05:46:41.634Z,25.31
2023-02-16T05:47:41.596Z,25.31
2023-02-16T05:48:41.554Z,25.31
2023-02-16T05:49:41.530Z,25.31
2023-02-16T05:50:41.472Z,25.31
2023-02-16T05:51:41.436Z,25.31
2023-02-16T05:52:41.395Z,25.32
2023-02-16T05:53:41.352Z,25.28
2023-02-16T05:54:41.314Z,25.31
2023-02-16T05:55:41.275Z,25.31
2023-02-16T05:56:41.243Z,25.31
2023-02-16T05:57:41.200Z,25.30
2023-02-16T05:58:41.185Z,25.30
2023-02-16T05:59:41.111Z,25.30
2023-02-16T06:00:41.065Z,25.30
2023-02-16T06:01:41.030Z,25.32
2023-02-16T06:02:41.065Z,25.31
2023-02-16T06:03:41.037Z,25.28
2023-02-16T06:04:40.967Z,25.30
2023-02-16T06:05:40.874Z,25.31
2023-02-16T06:06:40.830Z,25.30
2023-02-16T06:07:40.791Z,25.30
2023-02-16T06:08:40.752Z,25.30
2023-02-16T06:09:40.746Z,25.30
2023-02-16T06:10:40.674Z,25.28
2023-02-16T06:11:40.636Z,25.28
2023-02-16T06:12:40.588Z,25.28
2023-02-16T06:13:40.546Z,25.31
2023-02-16T06:14:40.541Z,25.31
2023-02-16T06:15:40.494Z,25.27
2023-02-16T06:16:40.430Z,25.27
2023-02-16T06:17:40.388Z,25.30
2023-02-16T06:18:40.350Z,25.30
2023-02-16T06:19:40.307Z,25.31
2023-02-16T06:20:40.259Z,25.30
2023-02-16T06:21:40.215Z,25.30
2023-02-16T06:22:40.172Z,25.30
2023-02-16T06:23:40.132Z,25.31
2023-02-16T06:24:40.119Z,25.28
2023-02-16T06:25:40.044Z,25.31
2023-02-16T06:26:40.006Z,25.30
2023-02-16T06:27:39.954Z,25.30
2023-02-16T06:28:39.948Z,25.28
2023-02-16T06:29:39.908Z,25.28
2023-02-16T06:30:39.858Z,25.28
2023-02-16T06:31:39.907Z,25.27
2023-02-16T06:32:39.747Z,25.32
2023-02-16T06:33:39.735Z,25.31
2023-02-16T06:34:39.710Z,25.31
2023-02-16T06:35:39.615Z,25.30
2023-02-16T06:36:42.297Z,25.32
2023-02-16T06:37:39.541Z,25.31
2023-02-16T06:38:39.519Z,25.32
2023-02-16T06:39:39.442Z,25.32
2023-02-16T06:40:39.403Z,25.30
2023-02-16T06:41:39.363Z,25.34
2023-02-16T06:42:39.323Z,25.32
2023-02-16T06:43:39.283Z,25.31
2023-02-16T06:44:39.246Z,25.31
2023-02-16T06:45:39.199Z,25.31
2023-02-16T06:46:39.288Z,25.32
2023-02-16T06:47:39.111Z,25.31
2023-02-16T06:48:39.064Z,25.32
2023-02-16T06:49:39.021Z,25.32
2023-02-16T06:50:39.050Z,25.28
2023-02-16T06:51:38.935Z,25.34
2023-02-16T06:52:38.925Z,25.32
2023-02-16T06:53:38.856Z,25.30
2023-02-16T06:54:38.811Z,25.32
2023-02-16T06:55:38.774Z,25.31
2023-02-16T06:56:38.753Z,25.34
2023-02-16T06:57:38.711Z,25.30
2023-02-16T06:58:38.649Z,25.31
2023-02-16T06:59:38.614Z,25.31
2023-02-16T07:00:38.598Z,25.32
2023-02-16T07:01:38.538Z,25.30
2023-02-16T07:02:38.566Z,25.32
2023-02-16T07:03:38.625Z,25.32
2023-02-16T07:04:38.424Z,25.31
2023-02-16T07:05:38.352Z,25.31
2023-02-16T07:06:38.315Z,25.32
2023-02-16T07:07:38.270Z,25.32
2023-02-16T07:08:38.241Z,25.32
2023-02-16T07:09:38.178Z,25.34
2023-02-16T07:10:49.340Z,25.31
2023-02-16T07:11:38.098Z,25.32
2023-02-16T07:12:38.061Z,25.32
2023-02-16T07:13:38.014Z,25.35
2023-02-16T07:14:37.976Z,25.34
2023-02-16T07:15:37.937Z,25.32
2023-02-16T07:16:38.039Z,25.31
2023-02-16T07:17:37.854Z,25.34
2023-02-16T07:18:37.841Z,25.32
2023-02-16T07:19:37.768Z,25.31
2023-02-16T07:20:37.742Z,25.32
2023-02-16T07:21:37.700Z,25.34
2023-02-16T07:22:37.650Z,25.37
2023-02-16T07:23:37.615Z,25.34
2023-02-16T07:24:37.567Z,25.34
2023-02-16T07:25:37.529Z,25.34
2023-02-16T07:26:37.490Z,25.34
2023-02-16T07:27:37.441Z,25.32
2023-02-16T07:28:37.408Z,25.35
2023-02-16T07:29:37.369Z,25.35
2023-02-16T07:30:37.488Z,25.35
2023-02-16T07:31:37.428Z,25.37
2023-02-16T07:32:37.262Z,25.37
2023-02-16T07:33:37.211Z,25.39
2023-02-16T07:34:37.194Z,25.35
2023-02-16T07:35:37.129Z,25.38
2023-02-16T07:36:37.115Z,25.37
2023-02-16T07:37:37.049Z,25.35
2023-02-16T07:38:37.025Z,25.37
2023-02-16T07:39:36.962Z,25.34
2023-02-16T07:40:36.927Z,25.37
2023-02-16T07:41:36.878Z,25.37
2023-02-16T07:42:36.852Z,25.37
2023-02-16T07:43:36.804Z,25.38
2023-02-16T07:44:36.771Z,25.38
2023-02-16T07:45:36.756Z,25.37
2023-02-16T07:46:36.693Z,25.37
2023-02-16T07:47:36.658Z,25.35
2023-02-16T07:48:36.656Z,25.38
2023-02-16T07:49:36.582Z,25.38
2023-02-16T07:50:36.569Z,25.37
2023-02-16T07:51:36.500Z,25.38
2023-02-16T07:52:36.471Z,25.38
2023-02-16T07:53:36.425Z,25.37
2023-02-16T07:54:36.387Z,25.38
2023-02-16T07:55:36.358Z,25.39
2023-02-16T07:56:36.276Z,25.39
2023-02-16T07:57:36.237Z,25.39
2023-02-16T07:58:36.199Z,25.39
2023-02-16T07:59:36.160Z,25.42
2023-02-16T08:00:36.119Z,25.42
2023-02-16T08:01:36.080Z,25.39
2023-02-16T08:02:36.162Z,25.38
2023-02-16T08:03:35.995Z,25.41
2023-02-16T08:04:35.958Z,25.39
2023-02-16T08:05:35.946Z,25.41
2023-02-16T08:06:35.943Z,25.41
2023-02-16T08:07:35.833Z,25.41
2023-02-16T08:08:35.833Z,25.42
2023-02-16T08:09:35.752Z,25.41
2023-02-16T08:10:35.714Z,25.42
2023-02-16T08:11:35.675Z,25.45
2023-02-16T08:12:35.626Z,25.42
2023-02-16T08:13:35.584Z,25.41
2023-02-16T08:14:35.547Z,25.45
2023-02-16T08:15:35.504Z,25.42
2023-02-16T08:16:35.571Z,25.45
2023-02-16T08:17:35.426Z,25.44
2023-02-16T08:18:35.380Z,25.45
2023-02-16T08:19:35.337Z,25.44
2023-02-16T08:20:57.243Z,25.44
2023-02-16T08:21:35.259Z,25.42
2023-02-16T08:22:35.255Z,25.45
2023-02-16T08:23:35.176Z,25.46
2023-02-16T08:24:35.141Z,25.42
2023-02-16T08:25:35.076Z,25.46
2023-02-16T08:26:35.029Z,25.48
2023-02-16T08:27:35.026Z,25.46
2023-02-16T08:28:34.941Z,25.48
2023-02-16T08:29:34.904Z,25.45
2023-02-16T08:30:34.939Z,25.45
2023-02-16T08:31:35.047Z,25.46
2023-02-16T08:32:34.783Z,25.45
2023-02-16T08:33:34.732Z,25.48
2023-02-16T08:34:34.690Z,25.48
2023-02-16T08:35:34.652Z,25.45
2023-02-16T08:36:34.616Z,25.46
2023-02-16T08:37:34.573Z,25.46
2023-02-16T08:38:34.629Z,25.48
2023-02-16T08:39:34.521Z,25.45
2023-02-16T08:40:34.444Z,25.48
2023-02-16T08:41:34.403Z,25.46
2023-02-16T08:42:34.358Z,25.46
2023-02-16T08:43:34.320Z,25.45
2023-02-16T08:44:34.322Z,25.46
2023-02-16T08:45:34.343Z,25.46
2023-02-16T08:46:34.197Z,25.46
2023-02-16T08:47:34.154Z,25.49
2023-02-16T08:48:34.108Z,25.48
2023-02-16T08:49:34.142Z,25.48
2023-02-16T08:50:34.038Z,25.49
2023-02-16T08:51:34.015Z,25.50
2023-02-16T08:52:33.969Z,25.49
2023-02-16T08:53:33.927Z,25.50
2023-02-16T08:54:33.920Z,25.49
2023-02-16T08:55:33.856Z,25.50
2023-02-16T08:56:33.851Z,25.50
2023-02-16T08:57:33.778Z,25.50
2023-02-16T08:58:33.733Z,25.50
2023-02-16T08:59:33.686Z,25.50
2023-02-16T09:00:33.642Z,25.52
2023-02-16T09:01:33.673Z,25.50
2023-02-16T09:02:33.637Z,25.49
2023-02-16T09:03:33.547Z,25.50
2023-02-16T09:04:33.475Z,25.50
2023-02-16T09:05:33.436Z,25.50
2023-02-16T09:06:33.393Z,25.50
2023-02-16T09:07:33.357Z,25.52
2023-02-16T09:08:33.356Z,25.50
2023-02-16T09:09:33.275Z,25.48
2023-02-16T09:10:33.255Z,25.49
2023-02-16T09:11:33.191Z,25.49
2023-02-16T09:12:33.150Z,25.50
2023-02-16T09:13:33.143Z,25.52
2023-02-16T09:14:33.095Z,25.49
2023-02-16T09:15:33.025Z,25.50
2023-02-16T09:16:33.030Z,25.50
2023-02-16T09:17:32.944Z,25.52
2023-02-16T09:18:32.941Z,25.48
2023-02-16T09:19:32.871Z,25.50
2023-02-16T09:20:32.823Z,25.52
2023-02-16T09:21:32.782Z,25.52
2023-02-16T09:22:32.745Z,25.52
2023-02-16T09:23:32.716Z,25.52
2023-02-16T09:24:33.513Z,25.50
2023-02-16T09:25:32.616Z,25.49
2023-02-16T09:26:32.606Z,25.50
2023-02-16T09:27:32.543Z,25.50
2023-02-16T09:28:32.497Z,25.50
2023-02-16T09:29:32.458Z,25.52
2023-02-16T09:30:32.565Z,25.49
2023-02-16T09:31:32.561Z,25.48
2023-02-16T09:32:32.339Z,25.52
2023-02-16T09:33:32.302Z,25.50
2023-02-16T09:34:32.260Z,25.52
2023-02-16T09:35:32.283Z,25.50
2023-02-16T09:36:32.217Z,25.50
2023-02-16T09:37:32.135Z,25.50
2023-02-16T09:38:32.097Z,25.52
2023-02-16T09:39:32.043Z,25.53
2023-02-16T09:40:32.029Z,25.52
2023-02-16T09:41:31.953Z,25.53
2023-02-16T09:42:31.936Z,25.50
2023-02-16T09:43:31.872Z,25.52
2023-02-16T09:44:31.823Z,25.53
2023-02-16T09:45:31.814Z,25.55
2023-02-16T09:46:31.759Z,25.52
2023-02-16T09:47:31.687Z,25.56
2023-02-16T09:48:31.645Z,25.55
2023-02-16T09:49:31.614Z,25.55
2023-02-16T09:50:52.988Z,25.56
2023-02-16T09:51:35.003Z,25.56
2023-02-16T09:52:31.509Z,25.56
2023-02-16T09:53:31.450Z,25.55
2023-02-16T09:54:31.397Z,25.55
2023-02-16T09:55:31.351Z,25.56
2023-02-16T09:56:31.304Z,25.55
2023-02-16T09:57:31.275Z,25.56
2023-02-16T09:58:31.281Z,25.56
2023-02-16T09:59:31.185Z,25.56
2023-02-16T10:00:31.138Z,25.56
2023-02-16T10:01:31.141Z,25.56
2023-02-16T10:02:31.131Z,25.59
2023-02-16T10:03:31.010Z,25.58
2023-02-16T10:04:30.963Z,25.58
2023-02-16T10:05:30.921Z,25.58
2023-02-16T10:06:30.893Z,25.59
2023-02-16T10:07:30.845Z,25.58
2023-02-16T10:08:30.803Z,25.56
2023-02-16T10:09:30.760Z,25.58
2023-02-16T10:10:30.725Z,25.58
2023-02-16T10:11:30.704Z,25.58
2023-02-16T10:12:30.656Z,25.58
2023-02-16T10:13:30.621Z,25.58
2023-02-16T10:14:30.710Z,25.58
2023-02-16T10:15:30.632Z,25.56
2023-02-16T10:16:30.490Z,25.56
2023-02-16T10:17:30.451Z,25.59
2023-02-16T10:18:30.416Z,25.55
2023-02-16T10:19:30.368Z,25.58
2023-02-16T10:20:30.324Z,25.58
2023-02-16T10:21:30.287Z,25.59
2023-02-16T10:22:30.254Z,25.59
2023-02-16T10:23:30.205Z,25.58
2023-02-16T10:24:30.166Z,25.58
2023-02-16T10:25:30.152Z,25.59
2023-02-16T10:26:30.085Z,25.58
2023-02-16T10:27:30.042Z,25.62
2023-02-16T10:28:30.009Z,25.58
2023-02-16T10:29:29.959Z,25.59
2023-02-16T10:30:30.124Z,25.59
2023-02-16T10:31:29.974Z,25.61
2023-02-16T10:32:29.849Z,25.58
2023-02-16T10:33:30.014Z,25.58
2023-02-16T10:34:29.773Z,25.56
2023-02-16T10:35:29.746Z,25.56
2023-02-16T10:36:29.695Z,25.58
2023-02-16T10:37:29.664Z,25.58
2023-02-16T10:38:29.847Z,25.59
2023-02-16T10:39:29.587Z,25.62
2023-02-16T10:40:29.545Z,25.59
2023-02-16T10:41:29.599Z,25.62
2023-02-16T10:42:29.473Z,25.62
2023-02-16T10:43:29.451Z,25.61
2023-02-16T10:44:29.401Z,25.58
2023-02-16T10:45:29.357Z,25.58
2023-02-16T10:46:29.459Z,25.61
2023-02-16T10:47:29.278Z,25.59
2023-02-16T10:48:29.230Z,25.59
2023-02-16T10:49:29.193Z,25.58
2023-02-16T10:50:29.163Z,25.56
2023-02-16T10:51:29.132Z,25.58
2023-02-16T10:52:29.071Z,25.58
2023-02-16T10:53:29.026Z,25.58
2023-02-16T10:54:28.983Z,25.59
2023-02-16T10:55:28.957Z,25.58
2023-02-16T10:56:28.893Z,25.59
2023-02-16T10:57:28.859Z,25.59
2023-02-16T10:58:28.843Z,25.62
2023-02-16T10:59:28.768Z,25.59
2023-02-16T11:00:28.787Z,25.59
2023-02-16T11:01:28.719Z,25.61
2023-02-16T11:02:28.685Z,25.59
2023-02-16T11:03:28.613Z,25.58
2023-02-16T11:04:28.692Z,25.61
2023-02-16T11:05:28.528Z,25.62
2023-02-16T11:06:28.488Z,25.59
2023-02-16T11:07:28.479Z,25.61
2023-02-16T11:08:29.973Z,25.61
2023-02-16T11:09:28.578Z,25.62
2023-02-16T11:10:28.520Z,25.64
2023-02-16T11:11:28.469Z,25.62
2023-02-16T11:12:28.463Z,25.62
2023-02-16T11:13:28.385Z,25.61
2023-02-16T11:14:28.350Z,25.62
2023-02-16T11:15:28.318Z,25.62
2023-02-16T11:16:28.272Z,25.62
2023-02-16T11:17:28.236Z,25.62
2023-02-16T11:18:28.223Z,25.64
2023-02-16T11:19:28.142Z,25.64
2023-02-16T11:20:28.106Z,25.64
2023-02-16T11:21:28.056Z,25.64
2023-02-16T11:22:28.021Z,25.61
2023-02-16T11:23:27.982Z,25.64
2023-02-16T11:24:27.937Z,25.62
2023-02-16T11:25:27.876Z,25.61
2023-02-16T11:26:27.887Z,25.64
2023-02-16T11:27:27.799Z,25.61
2023-02-16T11:28:27.751Z,25.61
2023-02-16T11:29:27.732Z,25.64
2023-02-16T11:30:27.711Z,25.59
2023-02-16T11:31:27.759Z,25.62
2023-02-16T11:32:27.632Z,25.62
2023-02-16T11:33:27.539Z,25.64
2023-02-16T11:34:27.573Z,25.61
2023-02-16T11:35:27.459Z,25.62
2023-02-16T11:36:27.419Z,25.61
2023-02-16T11:37:27.390Z,25.61
2023-02-16T11:38:27.367Z,25.58
2023-02-16T11:39:27.302Z,25.61
2023-02-16T11:40:27.256Z,25.64
2023-02-16T11:41:27.226Z,25.61
2023-02-16T11:42:27.170Z,25.61
2023-02-16T11:43:27.134Z,25.62
2023-02-16T11:44:27.169Z,25.62
2023-02-16T11:45:27.079Z,25.64
2023-02-16T11:46:27.072Z,25.61
2023-02-16T11:47:26.953Z,25.62
2023-02-16T11:48:26.913Z,25.61
2023-02-16T11:49:26.876Z,25.64
2023-02-16T11:50:26.872Z,25.62
2023-02-16T11:51:26.805Z,25.62
2023-02-16T11:52:26.766Z,25.65
2023-02-16T11:53:26.722Z,25.64
2023-02-16T11:54:26.689Z,25.65
2023-02-16T11:55:26.659Z,25.65
2023-02-16T11:56:26.621Z,25.64
2023-02-16T11:57:26.601Z,25.66
2023-02-16T11:58:26.562Z,25.64
2023-02-16T11:59:26.508Z,25.66
2023-02-16T12:00:26.485Z,25.65
2023-02-16T12:01:26.439Z,25.64
2023-02-16T12:02:26.392Z,25.65
2023-02-16T12:03:26.350Z,25.65
2023-02-16T12:04:26.312Z,25.68
2023-02-16T12:05:26.393Z,25.65
2023-02-16T12:06:26.258Z,25.66
2023-02-16T12:07:26.201Z,25.68
2023-02-16T12:08:26.158Z,25.68
2023-02-16T12:09:26.114Z,25.65
2023-02-16T12:10:26.091Z,25.68
2023-02-16T12:11:26.045Z,25.65
2023-02-16T12:12:26.007Z,25.66
2023-02-16T12:13:25.966Z,25.66
2023-02-16T12:14:25.925Z,25.65
2023-02-16T12:15:25.884Z,25.68
2023-02-16T12:16:25.907Z,25.65
2023-02-16T12:17:25.808Z,25.68
2023-02-16T12:18:25.772Z,25.65
2023-02-16T12:19:25.729Z,25.66
2023-02-16T12:20:25.720Z,25.64
2023-02-16T12:21:25.688Z,25.62
2023-02-16T12:22:25.665Z,25.64
2023-02-16T12:23:25.635Z,25.66
2023-02-16T12:24:25.532Z,25.65
2023-02-16T12:25:25.496Z,25.64
2023-02-16T12:26:25.472Z,25.64
2023-02-16T12:27:25.421Z,25.64
2023-02-16T12:28:25.403Z,25.66
2023-02-16T12:29:25.345Z,25.65
2023-02-16T12:30:25.357Z,25.66
2023-02-16T12:31:25.383Z,25.69
2023-02-16T12:32:25.203Z,25.68
2023-02-16T12:33:25.164Z,25.68
2023-02-16T12:34:25.124Z,25.68
2023-02-16T12:35:25.079Z,25.65
2023-02-16T12:36:25.035Z,25.65
2023-02-16T12:37:24.995Z,25.66
2023-02-16T12:38:24.993Z,25.66
2023-02-16T12:39:24.917Z,25.66
2023-02-16T12:40:24.883Z,25.66
2023-02-16T12:41:24.843Z,25.68
2023-02-16T12:42:24.808Z,25.65
2023-02-16T12:43:24.765Z,25.64
2023-02-16T12:44:24.749Z,25.65
2023-02-16T12:45:24.750Z,25.66
2023-02-16T12:46:24.660Z,25.66
2023-02-16T12:47:24.632Z,25.65
2023-02-16T12:48:24.565Z,25.66
2023-02-16T12:49:24.590Z,25.66
2023-02-16T12:50:24.485Z,25.65
2023-02-16T12:51:24.450Z,25.65
2023-02-16T12:52:24.423Z,25.66
2023-02-16T12:53:24.354Z,25.66
2023-02-16T12:54:24.338Z,25.66
2023-02-16T12:55:24.274Z,25.66
2023-02-16T12:56:24.244Z,25.66
2023-02-16T12:57:24.199Z,25.66
2023-02-16T12:58:24.167Z,25.65
2023-02-16T12:59:24.118Z,25.69
2023-02-16T13:00:24.089Z,25.66
2023-02-16T13:01:24.052Z,25.68
2023-02-16T13:02:24.009Z,25.65
2023-02-16T13:03:23.992Z,25.66
2023-02-16T13:04:23.926Z,25.68
2023-02-16T13:05:23.893Z,25.68
2023-02-16T13:06:23.847Z,25.66
2023-02-16T13:07:23.812Z,25.65
2023-02-16T13:08:23.768Z,25.65
2023-02-16T13:09:23.735Z,25.65
2023-02-16T13:10:23.817Z,25.68
2023-02-16T13:11:23.704Z,25.66
2023-02-16T13:12:23.620Z,25.68
2023-02-16T13:13:23.600Z,25.66
2023-02-16T13:14:23.555Z,25.68
2023-02-16T13:15:23.528Z,25.66
2023-02-16T13:16:30.048Z,25.68
2023-02-16T13:17:23.437Z,25.68
2023-02-16T13:18:23.412Z,25.68
2023-02-16T13:19:23.377Z,25.65
2023-02-16T13:20:23.335Z,25.69
2023-02-16T13:21:23.290Z,25.68
2023-02-16T13:22:23.253Z,25.68
2023-02-16T13:23:23.205Z,25.68
2023-02-16T13:24:23.177Z,25.69
2023-02-16T13:25:23.179Z,25.68
2023-02-16T13:26:23.134Z,25.68
2023-02-16T13:27:23.019Z,25.66
2023-02-16T13:28:23.026Z,25.69
2023-02-16T13:29:23.088Z,25.68
2023-02-16T13:30:22.997Z,25.66
2023-02-16T13:31:22.922Z,25.68
2023-02-16T13:32:22.930Z,25.66
2023-02-16T13:33:22.770Z,25.66
2023-02-16T13:34:22.691Z,25.68
2023-02-16T13:35:22.653Z,25.66
2023-02-16T13:36:22.598Z,25.66
2023-02-16T13:37:22.551Z,25.68
2023-02-16T13:38:22.513Z,25.68
2023-02-16T13:39:22.452Z,25.65
2023-02-16T13:40:22.402Z,25.68
2023-02-16T13:41:22.366Z,25.68
2023-02-16T13:42:22.328Z,25.68
2023-02-16T13:43:22.259Z,25.66
2023-02-16T13:44:22.207Z,25.66